Terminal Aerodrome Forecast
Issued by NWS

Current Version | Previous Version | Text Only | Print | Product List | Glossary Off
Versions: 1 2 3 4 5 6 7 8 9 10 11 12

730
FTUS41 KILN 042328
TAFLCK
TAF
KLCK 042328Z 0500/0524 30005KT P6SM -SN SCT030 BKN045
     FM050300 29004KT P6SM SKC
     FM051500 23007KT P6SM BKN250=

USA.gov is the U.S. government's official web portal to all federal, state and local government web resources and services.